Cartagena de Indias, Colombia

10:23 AM COT en Octubre 22, 2014 (GMT -0500)
Rafael Nunez | Change Station
CLOSE
Current Station
Aeropuerto
Location: Cartagena,
Altura: 39 ft
Estaciones meteorológicas cercanas

Alt 39 ft 10.45 °N, 75.52 °W | Updated 23 minutes ago

Partly Cloudy
Parcialmente nublado
90 ° F
Sensación térmica 105 ° F
N
5
Viento Variable Viento desde ONO

Hoy
Alta -- | Baja -- ° F
--% Posibilidad de precipitaciones
Ayer
Alta -- | Baja -- ° F
Precip. -- pul
5:51 AM 5:41 PM
Creciente menguante, 2% visible
Presión 29.88 pul
Visibilidad 6.2 Millas
Nubes Baja 1800 ft
Índice de calor 105 ° F
Punto de rocío 79 ° F
Humedad 70%
Precipitaciones 0.00 pul
Espesor de la nieve No disponible.
UV 12 de una escala de 12
Polen No disponible.
Calidad del aire No disponible.
Flu Activity No disponible.
METAR SKCG 221500Z 30004KT 9999 FEW018 32/26 A2988

More Conditions Fewer Conditions

Presión 29.88 pul
Visibilidad 6.2 Millas
Nubes Baja 1800 ft
Índice de calor 105 ° F
Punto de rocío 79 ° F
Humedad 70%
Precipitaciones 0.00 pul
Espesor de la nieve No disponible.
UV 12 de una escala de 12
Polen No disponible.
Calidad del aire No disponible.
Flu Activity No disponible.
METAR SKCG 221500Z 30004KT 9999 FEW018 32/26 A2988

More Conditions Fewer Conditions

10-Day Weather Forecast

Almanac

Astronomía

Oct. 22, 2014 Salida Puesta
Hora real 5:51 AM COT 5:41 PM COT
Crepúsculo civil 5:29 AM COT 6:02 PM COT
Crepúsculo náutico 5:05 AM COT 6:27 PM COT
Crepúsculo astronómico 4:40 AM COT 6:52 PM COT
Luna 4:44 AM COT 4:57 PM COT
Horas de luz 12h 32m
Horas de luz
11h 50m
Tomorrow will be 0m 32s shorter.
Creciente menguante, 2% of the Moon is Illuminated
Hoy
Creciente menguante
Oct 23
Nueva
Oct 30
Cuarto creciente
Nov 6
Luna llena
Nov 14
Cuarto menguante

Extremos de hoy

Máximos del país Bajas del país

Community

WunderPhotos

Upload Photos

1,763,949 ¡fotos cargadas!

Nearby

Calidad del aire

Not available.

Grosos de nieve

Not available.

Actividad de terremotos

Ciudad Distance Mag. Tiempo y dato
No hay informes recientes de la actividad sísmica.
Magnitud mínima muestra es 2,5.

Temperaturas de aguas costeras

Lugar Temperatura
Sin partes meteorológicos de las estaciones

Estaciones meteorológicas cercanas